PORT of QINGDAO

Country: China Country: China [CN]
Latitude / Longitude: 36.05661° / 120.3201° Show on Map
Local Time:  [UTC +8]
UN/LOCODE: CNTAO
Vessels in Port: 187
Expected Arrivals: 142

Recent Arrivals & Departures


Vessel Name
Arrival (UTC)
Arrival (LT)
Departure (UTC)
Departure (LT)
Vessel Type: High Speed Craft  SHI TAI 598 2014-08-29 14:37:00 2014-08-29 22:37:00
Vessel Type: Cargo Vessels  CHANG AN 19 2014-08-23 08:49:00 2014-08-23 16:49:00 2014-08-29 14:32:00 2014-08-29 22:32:00
Vessel Type: Cargo Vessels  SU LIAN HAI 88 2014-08-29 14:28:00 2014-08-29 22:28:00
Vessel Type: Fishing  LUCHENGYU66129 2014-08-28 11:46:00 2014-08-28 19:46:00 2014-08-29 14:11:00 2014-08-29 22:11:00
Vessel Type: Fishing  LU CHANG YU858 2014-08-29 13:52:00 2014-08-29 21:52:00
Vessel Type: Cargo Vessels  SU BO ER 101 2014-08-27 20:30:00 2014-08-28 04:30:00 2014-08-29 13:49:00 2014-08-29 21:49:00
Vessel Type: Cargo Vessels  BAO HANG 12 2014-08-29 13:46:00 2014-08-29 21:46:00
Vessel Type: Fishing  LUCHENGYU 0187 2014-08-29 11:56:00 2014-08-29 19:56:00 2014-08-29 13:44:00 2014-08-29 21:44:00
Vessel Type: Yachts & Others  LUCHENGYU61065 2014-08-29 11:46:00 2014-08-29 19:46:00 2014-08-29 13:39:00 2014-08-29 21:39:00
Vessel Type: Cargo Vessels  JIN SHENG HE 2014-08-29 00:41:00 2014-08-29 08:41:00 2014-08-29 13:37:00 2014-08-29 21:37:00

Expected Arrivals


Vessel Name
Scheduled Arrival (UTC)
Scheduled Arrival (LT)
Estimated Arrival (UTC)
Estimated Arrival (LT)
Vessel Type: Cargo Vessels  LAS TORTOLAS 2014-08-27 21:30:00 2014-08-28 05:30:00
Vessel Type: Cargo Vessels  FENG LI 20 2014-08-28 01:00:00 2014-08-28 09:00:00 2014-08-29 07:27:00 2014-08-29 15:27:00
Vessel Type: Tankers  NING HUA 423 2014-08-28 01:00:00 2014-08-28 09:00:00 2014-08-30 00:27:00 2014-08-30 08:27:00
Vessel Type: Cargo Vessels  APL SANTIAGO 2014-08-28 04:00:00 2014-08-28 12:00:00 2014-08-29 14:56:00 2014-08-29 22:56:00
Vessel Type: Cargo Vessels  SEA VENUS 2014-08-28 04:00:00 2014-08-28 12:00:00 2014-09-08 08:14:00 2014-09-08 16:14:00
Vessel Type: Cargo Vessels  SU BO ER 101 2014-08-28 05:30:00 2014-08-28 13:30:00
Vessel Type: Cargo Vessels  COSCO TAICANG 2014-08-28 06:00:00 2014-08-28 14:00:00 2014-08-29 02:55:00 2014-08-29 10:55:00
Vessel Type: Cargo Vessels  RBD ESPERANZA 2014-08-28 06:00:00 2014-08-28 14:00:00 2014-08-29 04:59:00 2014-08-29 12:59:00
Vessel Type: Cargo Vessels  DYNAMOGRACHT 2014-08-28 07:00:00 2014-08-28 15:00:00
Vessel Type: Cargo Vessels  GANG TAI 95 2014-08-28 07:30:00 2014-08-28 15:30:00 2014-08-29 01:32:00 2014-08-29 09:32:00

Wind Forecast


    
Time (UTC)
Speed
Direction
Temperature
2014-08-29 15:00:00 4 knots 126° 23°C
2014-08-29 18:00:00 2 knots 105° 23°C
2014-08-29 21:00:00 3 knots 55° 23°C
2014-08-30 00:00:00 4 knots 82° 24°C
2014-08-30 03:00:00 7 knots 123° 26°C
2014-08-30 06:00:00 10 knots 132° 26°C
2014-08-30 09:00:00 8 knots 128° 25°C
2014-08-30 12:00:00 6 knots 125° 23°C
2014-08-30 15:00:00 5 knots 171° 24°C
2014-08-30 18:00:00 6 knots 175° 23°C
2014-08-30 21:00:00 3 knots 100° 23°C
2014-08-31 00:00:00 5 knots 91° 24°C
2014-08-31 03:00:00 9 knots 115° 26°C
2014-08-31 06:00:00 12 knots 137° 26°C
2014-08-31 09:00:00 10 knots 133° 25°C
2014-08-31 12:00:00 7 knots 127° 23°C
2014-08-31 15:00:00 6 knots 128° 23°C